createdAt,value
2022-11-25T00:00:53.369Z,7.60
2022-11-25T00:03:40.482Z,7.50
2022-11-25T00:06:28.983Z,7.50
2022-11-25T00:09:15.150Z,7.40
2022-11-25T00:12:01.617Z,7.40
2022-11-25T00:14:49.621Z,7.40
2022-11-25T00:17:35.777Z,7.40
2022-11-25T00:20:22.474Z,7.30
2022-11-25T00:23:08.695Z,7.30
2022-11-25T00:25:54.839Z,7.20
2022-11-25T00:28:41.940Z,7.20
2022-11-25T00:31:31.641Z,7.20
2022-11-25T00:34:18.077Z,7.10
2022-11-25T00:37:04.644Z,7.10
2022-11-25T00:39:51.014Z,7.10
2022-11-25T00:42:54.810Z,7.10
2022-11-25T00:45:41.458Z,7.20
2022-11-25T00:48:29.499Z,7.10
2022-11-25T00:51:15.783Z,7.00
2022-11-25T00:54:02.075Z,7.00
2022-11-25T00:56:48.367Z,6.90
2022-11-25T00:59:34.899Z,6.90
2022-11-25T01:02:21.791Z,6.90
2022-11-25T01:05:10.416Z,6.90
2022-11-25T01:07:56.807Z,6.90
2022-11-25T01:10:42.864Z,6.80
2022-11-25T01:13:29.607Z,6.80
2022-11-25T01:16:19.318Z,6.80
2022-11-25T01:19:06.059Z,6.80
2022-11-25T01:24:40.475Z,6.70
2022-11-25T01:27:27.100Z,6.70
2022-11-25T01:30:14.479Z,6.60
2022-11-25T01:33:00.758Z,6.60
2022-11-25T01:35:47.025Z,6.50
2022-11-25T01:38:35.994Z,6.50
2022-11-25T01:41:23.970Z,6.60
2022-11-25T01:44:13.598Z,6.50
2022-11-25T01:47:04.328Z,6.40
2022-11-25T01:49:54.783Z,6.40
2022-11-25T01:52:45.084Z,6.40
2022-11-25T01:55:35.948Z,6.40
2022-11-25T01:58:26.690Z,6.40
2022-11-25T02:01:13.413Z,6.30
2022-11-25T02:04:00.779Z,6.30
2022-11-25T02:06:52.024Z,6.30
2022-11-25T02:09:42.318Z,6.30
2022-11-25T02:12:30.961Z,6.30
2022-11-25T02:15:17.803Z,6.30
2022-11-25T02:18:04.530Z,6.30
2022-11-25T02:20:50.899Z,6.30
2022-11-25T02:23:43.023Z,6.30
2022-11-25T02:26:31.579Z,6.20
2022-11-25T02:29:18.108Z,6.10
2022-11-25T02:32:05.118Z,6.10
2022-11-25T02:34:51.648Z,6.10
2022-11-25T02:37:37.802Z,6.00
2022-11-25T02:40:25.386Z,6.00
2022-11-25T02:43:13.655Z,6.10
2022-11-25T02:46:02.767Z,6.10
2022-11-25T02:51:55.581Z,5.90
2022-11-25T02:54:41.914Z,5.90
2022-11-25T02:57:28.202Z,5.90
2022-11-25T03:00:17.647Z,5.90
2022-11-25T03:03:04.333Z,5.90
2022-11-25T03:05:50.555Z,5.80
2022-11-25T03:08:38.030Z,5.90
2022-11-25T03:11:45.152Z,5.90
2022-11-25T03:14:31.519Z,6.00
2022-11-25T03:17:18.967Z,6.00
2022-11-25T03:20:06.171Z,6.00
2022-11-25T03:22:53.068Z,6.00
2022-11-25T03:25:39.539Z,6.00
2022-11-25T03:28:25.742Z,5.90
2022-11-25T03:31:12.414Z,5.90
2022-11-25T03:34:00.115Z,5.80
2022-11-25T03:36:46.550Z,5.70
2022-11-25T03:39:32.976Z,5.70
2022-11-25T03:42:19.850Z,5.70
2022-11-25T03:45:07.662Z,5.70
2022-11-25T03:47:54.212Z,5.60
2022-11-25T03:50:42.175Z,5.50
2022-11-25T03:53:28.616Z,5.50
2022-11-25T03:56:14.965Z,5.50
2022-11-25T03:59:01.440Z,5.50
2022-11-25T04:01:47.645Z,5.60
2022-11-25T04:04:34.299Z,5.60
2022-11-25T04:07:22.400Z,5.70
2022-11-25T04:10:10.302Z,5.60
2022-11-25T04:12:55.567Z,5.60
2022-11-25T04:15:46.474Z,5.50
2022-11-25T04:18:33.028Z,5.40
2022-11-25T04:21:19.362Z,5.40
2022-11-25T04:24:07.935Z,5.40
2022-11-25T04:29:40.839Z,5.30
2022-11-25T04:32:27.633Z,5.20
2022-11-25T04:35:14.213Z,5.10
2022-11-25T04:38:00.662Z,5.10
2022-11-25T04:40:48.194Z,5.10
2022-11-25T04:43:34.543Z,5.10
2022-11-25T04:46:24.975Z,5.20
2022-11-25T04:49:12.622Z,5.10
2022-11-25T04:51:58.911Z,5.20
2022-11-25T04:54:45.323Z,5.20
2022-11-25T04:57:32.914Z,5.20
2022-11-25T05:00:20.939Z,5.10
2022-11-25T05:03:07.879Z,5.10
2022-11-25T05:05:54.017Z,5.10
2022-11-25T05:08:40.110Z,5.00
2022-11-25T05:11:26.399Z,5.00
2022-11-25T05:14:14.344Z,5.00
2022-11-25T05:17:00.426Z,5.10
2022-11-25T05:19:47.352Z,5.10
2022-11-25T05:22:34.747Z,5.20
2022-11-25T05:25:21.187Z,5.20
2022-11-25T05:28:07.767Z,5.20
2022-11-25T05:30:55.543Z,5.20
2022-11-25T05:33:41.748Z,5.20
2022-11-25T05:36:27.999Z,5.20
2022-11-25T05:39:14.562Z,5.20
2022-11-25T05:42:00.732Z,5.20
2022-11-25T05:44:47.135Z,5.10
2022-11-25T05:47:34.659Z,5.20
2022-11-25T05:50:21.108Z,5.20
2022-11-25T05:53:07.433Z,5.20
2022-11-25T05:55:57.801Z,5.10
2022-11-25T05:58:44.422Z,5.10
2022-11-25T06:01:31.204Z,5.10
2022-11-25T06:04:18.807Z,5.10
2022-11-25T06:07:06.039Z,5.10
2022-11-25T06:09:52.543Z,5.10
2022-11-25T06:12:39.140Z,5.20
2022-11-25T06:15:25.743Z,5.20
2022-11-25T06:18:13.528Z,5.20
2022-11-25T06:21:01.187Z,5.30
2022-11-25T06:23:48.389Z,5.30
2022-11-25T06:26:34.934Z,5.20
2022-11-25T06:29:21.343Z,5.30
2022-11-25T06:32:07.891Z,5.30
2022-11-25T06:34:54.174Z,5.30
2022-11-25T06:37:42.279Z,5.20
2022-11-25T06:40:28.679Z,5.10
2022-11-25T06:43:14.939Z,5.20
2022-11-25T06:46:06.413Z,5.20
2022-11-25T06:48:52.861Z,5.10
2022-11-25T06:51:39.462Z,5.10
2022-11-25T06:54:27.011Z,5.10
2022-11-25T06:57:17.476Z,5.10
2022-11-25T07:00:04.479Z,5.10
2022-11-25T07:02:51.169Z,5.00
2022-11-25T07:05:37.433Z,5.00
2022-11-25T07:08:25.655Z,5.00
2022-11-25T07:11:18.638Z,5.10
2022-11-25T07:14:07.887Z,5.20
2022-11-25T07:16:55.104Z,5.20
2022-11-25T07:19:41.405Z,5.30
2022-11-25T07:22:27.611Z,5.30
2022-11-25T07:25:14.233Z,5.30
2022-11-25T07:28:01.703Z,5.40
2022-11-25T07:31:22.676Z,5.50
2022-11-25T07:33:56.876Z,5.40
2022-11-25T07:36:43.508Z,5.40
2022-11-25T07:39:29.668Z,5.50
2022-11-25T07:42:15.935Z,5.70
2022-11-25T07:45:04.343Z,5.70
2022-11-25T07:47:50.875Z,5.70
2022-11-25T07:50:37.038Z,5.70
2022-11-25T07:53:23.784Z,5.90
2022-11-25T07:56:10.183Z,6.00
2022-11-25T07:58:57.185Z,5.90
2022-11-25T08:01:45.452Z,5.90
2022-11-25T08:04:32.215Z,6.00
2022-11-25T08:07:18.488Z,5.80
2022-11-25T08:10:05.145Z,5.80
2022-11-25T08:12:51.643Z,5.60
2022-11-25T08:15:37.969Z,5.60
2022-11-25T08:18:25.594Z,5.50
2022-11-25T08:21:14.625Z,5.50
2022-11-25T08:24:02.931Z,5.70
2022-11-25T08:26:49.880Z,5.80
2022-11-25T08:29:36.761Z,5.90
2022-11-25T08:32:23.127Z,5.90
2022-11-25T08:35:11.004Z,6.00
2022-11-25T08:37:57.703Z,6.10
2022-11-25T08:40:46.647Z,6.30
2022-11-25T08:43:32.872Z,6.40
2022-11-25T08:46:21.863Z,6.50
2022-11-25T08:49:09.726Z,6.50
2022-11-25T08:51:58.051Z,6.50
2022-11-25T08:54:44.504Z,6.60
2022-11-25T08:57:30.923Z,6.70
2022-11-25T09:00:17.925Z,6.80
2022-11-25T09:03:04.769Z,6.90
2022-11-25T09:05:53.227Z,6.90
2022-11-25T09:08:43.330Z,6.90
2022-11-25T09:11:30.165Z,7.00
2022-11-25T09:14:16.765Z,7.10
2022-11-25T09:17:03.758Z,7.30
2022-11-25T09:19:50.071Z,7.30
2022-11-25T09:22:37.272Z,7.30
2022-11-25T09:25:25.113Z,7.40
2022-11-25T09:28:11.972Z,7.40
2022-11-25T09:30:58.203Z,7.30
2022-11-25T09:33:44.855Z,7.30
2022-11-25T09:36:31.339Z,7.40
2022-11-25T09:39:17.563Z,7.40
2022-11-25T09:42:36.243Z,7.50
2022-11-25T09:45:43.669Z,7.60
2022-11-25T09:48:40.723Z,7.60
2022-11-25T09:51:37.518Z,7.70
2022-11-25T09:54:30.770Z,7.70
2022-11-25T09:57:26.951Z,7.70
2022-11-25T10:00:16.185Z,7.80
2022-11-25T10:03:07.810Z,7.90
2022-11-25T10:06:00.249Z,7.90
2022-11-25T10:08:49.421Z,7.90
2022-11-25T10:11:47.814Z,8.00
2022-11-25T10:14:45.368Z,8.20
2022-11-25T10:17:38.845Z,8.30
2022-11-25T10:20:26.765Z,8.40
2022-11-25T10:23:26.446Z,8.50
2022-11-25T10:26:16.688Z,8.50
2022-11-25T10:29:21.048Z,8.60
2022-11-25T10:32:23.022Z,8.60
2022-11-25T10:35:20.351Z,8.80
2022-11-25T10:38:18.583Z,8.70
2022-11-25T10:41:06.155Z,8.80
2022-11-25T10:43:52.476Z,8.90
2022-11-25T10:47:12.379Z,8.90
2022-11-25T10:50:04.999Z,9.00
2022-11-25T10:52:58.164Z,9.10
2022-11-25T10:55:59.158Z,9.20
2022-11-25T10:58:47.027Z,9.40
2022-11-25T11:01:33.543Z,9.50
2022-11-25T11:04:20.759Z,9.60
2022-11-25T11:07:10.382Z,9.60
2022-11-25T11:10:14.965Z,9.70
2022-11-25T11:13:03.498Z,9.80
2022-11-25T11:15:50.757Z,9.90
2022-11-25T11:18:42.762Z,9.90
2022-11-25T11:21:34.063Z,9.80
2022-11-25T11:24:28.669Z,9.90
2022-11-25T11:27:21.113Z,9.90
2022-11-25T11:30:15.108Z,9.80
2022-11-25T11:33:04.620Z,9.90
2022-11-25T11:35:58.865Z,9.90
2022-11-25T11:38:53.459Z,9.80
2022-11-25T11:41:46.845Z,9.90
2022-11-25T11:44:41.131Z,9.90
2022-11-25T11:47:36.659Z,9.90
2022-11-25T11:50:36.679Z,9.90
2022-11-25T11:53:30.390Z,9.80
2022-11-25T11:56:39.052Z,10.00
2022-11-25T11:59:48.825Z,10.00
2022-11-25T12:02:52.924Z,10.10
2022-11-25T12:05:39.764Z,10.40
2022-11-25T12:08:32.368Z,10.40
2022-11-25T12:11:23.840Z,10.50
2022-11-25T12:14:15.827Z,10.50
2022-11-25T12:17:08.409Z,10.70
2022-11-25T12:20:04.448Z,10.80
2022-11-25T12:22:58.790Z,10.80
2022-11-25T12:25:48.716Z,10.90
2022-11-25T12:28:39.462Z,10.90
2022-11-25T12:31:30.210Z,10.90
2022-11-25T12:34:23.642Z,10.90
2022-11-25T12:37:16.916Z,10.70
2022-11-25T12:40:08.695Z,10.70
2022-11-25T12:43:07.484Z,10.60
2022-11-25T12:46:06.181Z,10.60
2022-11-25T12:48:54.228Z,10.50
2022-11-25T12:52:08.487Z,10.50
2022-11-25T12:55:12.227Z,10.40
2022-11-25T12:58:23.407Z,10.50
2022-11-25T13:01:40.223Z,10.70
2022-11-25T13:05:00.476Z,10.70
2022-11-25T13:08:06.060Z,10.70
2022-11-25T13:11:08.553Z,10.70
2022-11-25T13:14:04.225Z,10.70
2022-11-25T13:16:52.976Z,10.60
2022-11-25T13:19:40.127Z,10.50
2022-11-25T13:22:29.603Z,10.50
2022-11-25T13:25:26.708Z,10.40
2022-11-25T13:28:29.999Z,10.40
2022-11-25T13:31:23.541Z,10.30
2022-11-25T13:34:29.728Z,10.30
2022-11-25T13:37:39.914Z,10.30
2022-11-25T13:40:39.445Z,10.30
2022-11-25T13:43:25.907Z,10.20
2022-11-25T13:46:29.636Z,10.30
2022-11-25T13:49:29.724Z,10.30
2022-11-25T13:52:33.528Z,10.30
2022-11-25T13:55:31.454Z,10.30
2022-11-25T13:58:35.848Z,10.20
2022-11-25T14:01:29.548Z,10.20
2022-11-25T14:04:17.776Z,10.10
2022-11-25T14:07:20.155Z,10.10
2022-11-25T14:10:27.525Z,10.00
2022-11-25T14:13:35.436Z,9.90
2022-11-25T14:16:37.938Z,9.80
2022-11-25T14:20:00.426Z,9.70
2022-11-25T14:23:27.480Z,9.70
2022-11-25T14:26:47.766Z,9.60
2022-11-25T14:29:34.056Z,9.60
2022-11-25T14:32:23.827Z,9.40
2022-11-25T14:35:15.634Z,9.50
2022-11-25T14:38:08.199Z,9.30
2022-11-25T14:41:00.233Z,9.20
2022-11-25T14:43:53.638Z,9.10
2022-11-25T14:46:54.105Z,9.10
2022-11-25T14:50:05.181Z,9.10
2022-11-25T14:52:56.292Z,9.00
2022-11-25T14:55:47.941Z,9.00
2022-11-25T14:58:34.260Z,9.00
2022-11-25T15:01:23.103Z,8.90
2022-11-25T15:04:18.327Z,8.90
2022-11-25T15:07:20.456Z,8.90
2022-11-25T15:10:08.749Z,8.80
2022-11-25T15:12:55.400Z,8.70
2022-11-25T15:15:45.030Z,8.80
2022-11-25T15:18:31.241Z,8.70
2022-11-25T15:21:22.556Z,8.70
2022-11-25T15:24:24.298Z,8.70
2022-11-25T15:27:16.240Z,8.80
2022-11-25T15:30:02.865Z,8.70
2022-11-25T15:32:50.240Z,8.70
2022-11-25T15:35:36.608Z,8.70
2022-11-25T15:38:38.440Z,8.70
2022-11-25T15:41:34.343Z,8.70
2022-11-25T15:44:23.867Z,8.70
2022-11-25T15:47:21.984Z,8.70
2022-11-25T15:50:20.512Z,8.70
2022-11-25T15:53:08.555Z,8.70
2022-11-25T15:56:01.745Z,8.60
2022-11-25T15:58:48.272Z,8.60
2022-11-25T16:01:35.289Z,8.60
2022-11-25T16:04:23.471Z,8.60
2022-11-25T16:07:23.454Z,8.60
2022-11-25T16:10:19.143Z,8.60
2022-11-25T16:13:40.424Z,8.60
2022-11-25T16:16:29.522Z,8.50
2022-11-25T16:19:22.209Z,8.50
2022-11-25T16:22:14.396Z,8.50
2022-11-25T16:25:02.894Z,8.50
2022-11-25T16:27:49.613Z,8.50
2022-11-25T16:30:38.539Z,8.50
2022-11-25T16:33:25.656Z,8.40
2022-11-25T16:36:11.903Z,8.50
2022-11-25T16:38:58.142Z,8.50
2022-11-25T16:41:46.289Z,8.60
2022-11-25T16:44:35.147Z,8.60
2022-11-25T16:47:24.140Z,8.60
2022-11-25T16:50:14.373Z,8.70
2022-11-25T16:53:01.451Z,8.60
2022-11-25T16:55:49.467Z,8.60
2022-11-25T16:58:35.899Z,8.60
2022-11-25T17:01:25.872Z,8.60
2022-11-25T17:04:15.279Z,8.60
2022-11-25T17:07:31.202Z,8.50
2022-11-25T17:10:09.949Z,8.60
2022-11-25T17:12:57.554Z,8.60
2022-11-25T17:15:44.177Z,8.60
2022-11-25T17:18:30.859Z,8.60
2022-11-25T17:21:18.903Z,8.60
2022-11-25T17:24:12.936Z,8.50
2022-11-25T17:27:03.949Z,8.60
2022-11-25T17:29:51.746Z,8.60
2022-11-25T17:32:38.128Z,8.60
2022-11-25T17:35:24.596Z,8.60
2022-11-25T17:38:14.530Z,8.50
2022-11-25T17:41:00.810Z,8.50
2022-11-25T17:43:51.011Z,8.60
2022-11-25T17:46:37.439Z,8.60
2022-11-25T17:49:24.715Z,8.60
2022-11-25T17:52:11.146Z,8.50
2022-11-25T17:54:58.679Z,8.50
2022-11-25T17:57:45.025Z,8.50
2022-11-25T18:00:34.051Z,8.50
2022-11-25T18:03:20.392Z,8.40
2022-11-25T18:06:07.606Z,8.50
2022-11-25T18:08:53.739Z,8.50
2022-11-25T18:11:46.733Z,8.50
2022-11-25T18:14:36.727Z,8.50
2022-11-25T18:17:23.537Z,8.50
2022-11-25T18:20:17.826Z,8.50
2022-11-25T18:23:04.285Z,8.50
2022-11-25T18:25:50.823Z,8.40
2022-11-25T18:28:38.539Z,8.40
2022-11-25T18:31:26.280Z,8.40
2022-11-25T18:34:17.182Z,8.30
2022-11-25T18:37:04.367Z,8.30
2022-11-25T18:39:50.838Z,8.30
2022-11-25T18:42:37.719Z,8.40
2022-11-25T18:45:28.856Z,8.40
2022-11-25T18:48:17.179Z,8.40
2022-11-25T18:51:03.687Z,8.30
2022-11-25T18:53:50.224Z,8.30
2022-11-25T18:56:38.748Z,8.30
2022-11-25T18:59:29.299Z,8.40
2022-11-25T19:02:19.084Z,8.50
2022-11-25T19:05:15.250Z,8.40
2022-11-25T19:08:01.914Z,8.40
2022-11-25T19:10:49.446Z,8.40
2022-11-25T19:13:36.729Z,8.30
2022-11-25T19:16:24.310Z,8.30
2022-11-25T19:19:14.836Z,8.30
2022-11-25T19:22:01.554Z,8.40
2022-11-25T19:24:48.588Z,8.30
2022-11-25T19:27:38.420Z,8.30
2022-11-25T19:30:28.601Z,8.20
2022-11-25T19:33:23.079Z,8.20
2022-11-25T19:36:21.935Z,8.30
2022-11-25T19:39:17.204Z,8.30
2022-11-25T19:42:03.740Z,8.30
2022-11-25T19:44:50.078Z,8.30
2022-11-25T19:47:36.408Z,8.50
2022-11-25T19:50:24.740Z,8.40
2022-11-25T19:53:16.788Z,8.30
2022-11-25T19:56:04.608Z,8.30
2022-11-25T19:58:52.449Z,8.30
2022-11-25T20:01:42.339Z,8.30
2022-11-25T20:04:28.870Z,8.30
2022-11-25T20:07:18.045Z,8.30
2022-11-25T20:10:19.336Z,8.30
2022-11-25T20:13:08.076Z,8.30
2022-11-25T20:15:55.768Z,8.30
2022-11-25T20:18:42.388Z,8.20
2022-11-25T20:21:33.445Z,8.20
2022-11-25T20:24:21.715Z,8.10
2022-11-25T20:27:11.169Z,8.10
2022-11-25T20:29:57.530Z,8.10
2022-11-25T20:32:44.177Z,8.00
2022-11-25T20:35:30.691Z,8.00
2022-11-25T20:38:20.441Z,7.90
2022-11-25T20:41:07.080Z,7.80
2022-11-25T20:43:55.648Z,7.80
2022-11-25T20:46:42.133Z,7.70
2022-11-25T20:49:29.214Z,7.70
2022-11-25T20:52:22.209Z,7.70
2022-11-25T20:55:16.183Z,7.70
2022-11-25T20:58:03.250Z,7.60
2022-11-25T21:00:56.999Z,7.50
2022-11-25T21:03:44.916Z,7.40
2022-11-25T21:06:40.589Z,7.40
2022-11-25T21:09:31.923Z,7.30
2022-11-25T21:12:19.683Z,7.30
2022-11-25T21:15:13.036Z,7.10
2022-11-25T21:18:00.922Z,7.10
2022-11-25T21:20:48.387Z,7.10
2022-11-25T21:23:37.306Z,7.00
2022-11-25T21:26:27.498Z,6.90
2022-11-25T21:29:16.753Z,7.00
2022-11-25T21:32:03.385Z,6.90
2022-11-25T21:34:51.699Z,6.90
2022-11-25T21:37:40.543Z,6.90
2022-11-25T21:40:35.634Z,6.80
2022-11-25T21:43:25.569Z,6.90
2022-11-25T21:46:15.223Z,6.70
2022-11-25T21:49:01.726Z,6.80
2022-11-25T21:51:49.372Z,6.70
2022-11-25T21:54:36.032Z,6.60
2022-11-25T21:57:27.904Z,6.60
2022-11-25T22:00:21.993Z,6.60
2022-11-25T22:03:14.412Z,6.60
2022-11-25T22:06:00.608Z,6.50
2022-11-25T22:08:48.762Z,6.60
2022-11-25T22:11:36.926Z,6.70
2022-11-25T22:14:28.753Z,6.60
2022-11-25T22:17:18.931Z,6.50
2022-11-25T22:20:14.968Z,6.50
2022-11-25T22:23:02.374Z,6.60
2022-11-25T22:25:51.219Z,6.60
2022-11-25T22:28:37.512Z,6.60
2022-11-25T22:31:24.830Z,6.60
2022-11-25T22:34:17.887Z,6.60
2022-11-25T22:37:04.227Z,6.60
2022-11-25T22:39:50.851Z,6.60
2022-11-25T22:42:39.924Z,6.70
2022-11-25T22:45:31.403Z,6.80
2022-11-25T22:48:19.837Z,6.80
2022-11-25T22:51:07.788Z,6.80
2022-11-25T22:53:54.374Z,6.90
2022-11-25T22:56:40.785Z,6.90
2022-11-25T22:59:28.607Z,6.90
2022-11-25T23:02:20.665Z,7.00
2022-11-25T23:05:15.883Z,7.00
2022-11-25T23:08:03.150Z,7.00
2022-11-25T23:10:50.673Z,7.10
2022-11-25T23:13:37.136Z,7.10
2022-11-25T23:16:25.039Z,7.20
2022-11-25T23:19:15.833Z,7.20
2022-11-25T23:22:02.410Z,7.20
2022-11-25T23:24:49.649Z,7.20
2022-11-25T23:27:35.846Z,7.30
2022-11-25T23:30:24.318Z,7.40
2022-11-25T23:33:19.555Z,7.30
2022-11-25T23:36:09.548Z,7.40
2022-11-25T23:38:59.157Z,7.40
2022-11-25T23:41:45.482Z,7.30
2022-11-25T23:44:32.726Z,7.40
2022-11-25T23:47:23.026Z,7.40
2022-11-25T23:50:17.212Z,7.40
2022-11-25T23:53:07.918Z,7.40
2022-11-25T23:55:54.715Z,7.50
2022-11-25T23:58:41.057Z,7.50
